logo
Search for airport 
image banner adimage banner adimage banner ad
image banner ad

YHEL - Helenvale

Located in Rossville, Australia

ICAO - , IATA -

Data provided by Airmate  

General information

Coordinates: S15°41'10" E145°13'7"
Elevation is 461 feet MSL.
Magnetic variation is 6° East
View others Airports in Queensland

Operational data

Special qualification required
Current time UTC:
Current local time:
Weather at : - ( 0 km )
METAR: KUNV 171253Z 23004KT 10SM SCT030 25/21 A2992
View NOTAMs / SUP AIP / TFR affecting this airport [VIEW]
Communications frequencies: [VIEW]

Runways:

Airport contact information

Address: Rossville Australia

Satellite view of YHEL